sensor_id;sensor_type;location;lat;lon;timestamp;pressure;altitude;pressure_sealevel;temperature;humidity
70954;BME280;58618;47.490;8.736;2023-06-14T00:01:56;95955.22;;;10.99;75.32
70954;BME280;58618;47.490;8.736;2023-06-14T00:04:44;95958.09;;;10.97;75.82
70954;BME280;58618;47.490;8.736;2023-06-14T00:07:35;95951.75;;;10.90;77.49
70954;BME280;58618;47.490;8.736;2023-06-14T00:10:25;95951.41;;;10.83;78.05
70954;BME280;58618;47.490;8.736;2023-06-14T00:13:17;95955.59;;;10.79;76.85
70954;BME280;58618;47.490;8.736;2023-06-14T00:16:04;95952.16;;;10.70;79.97
70954;BME280;58618;47.490;8.736;2023-06-14T00:18:51;95944.09;;;10.57;77.76
70954;BME280;58618;47.490;8.736;2023-06-14T00:21:38;95953.00;;;10.51;80.29
70954;BME280;58618;47.490;8.736;2023-06-14T00:24:26;95942.97;;;10.50;80.51
70954;BME280;58618;47.490;8.736;2023-06-14T00:27:15;95954.06;;;10.50;82.29
70954;BME280;58618;47.490;8.736;2023-06-14T00:30:02;95946.88;;;10.47;81.61
70954;BME280;58618;47.490;8.736;2023-06-14T00:32:50;95941.25;;;10.45;82.81
70954;BME280;58618;47.490;8.736;2023-06-14T00:35:37;95935.59;;;10.43;77.95
70954;BME280;58618;47.490;8.736;2023-06-14T00:38:24;95940.84;;;10.38;80.40
70954;BME280;58618;47.490;8.736;2023-06-14T00:41:12;95930.72;;;10.28;83.31
70954;BME280;58618;47.490;8.736;2023-06-14T00:44:01;95940.06;;;10.24;85.75
70954;BME280;58618;47.490;8.736;2023-06-14T00:46:49;95933.19;;;10.20;81.72
70954;BME280;58618;47.490;8.736;2023-06-14T00:49:37;95930.66;;;10.14;82.82
70954;BME280;58618;47.490;8.736;2023-06-14T00:52:24;95935.81;;;10.14;82.08
70954;BME280;58618;47.490;8.736;2023-06-14T00:55:13;95930.38;;;10.16;83.93
70954;BME280;58618;47.490;8.736;2023-06-14T00:58:00;95931.56;;;10.05;84.08
70954;BME280;58618;47.490;8.736;2023-06-14T01:00:49;95925.25;;;9.97;85.53
70954;BME280;58618;47.490;8.736;2023-06-14T01:03:37;95929.25;;;9.90;85.76
70954;BME280;58618;47.490;8.736;2023-06-14T01:06:31;95933.44;;;9.86;84.74
70954;BME280;58618;47.490;8.736;2023-06-14T01:09:27;95924.25;;;9.80;86.26
70954;BME280;58618;47.490;8.736;2023-06-14T01:12:24;95916.75;;;9.64;87.01
70954;BME280;58618;47.490;8.736;2023-06-14T01:15:12;95915.78;;;9.60;88.21
70954;BME280;58618;47.490;8.736;2023-06-14T01:18:02;95928.59;;;9.65;87.16
70954;BME280;58618;47.490;8.736;2023-06-14T01:20:50;95930.13;;;9.66;86.92
70954;BME280;58618;47.490;8.736;2023-06-14T01:23:42;95926.00;;;9.65;87.58
70954;BME280;58618;47.490;8.736;2023-06-14T01:26:29;95926.09;;;9.60;85.59
70954;BME280;58618;47.490;8.736;2023-06-14T01:29:17;95924.63;;;9.54;87.66
70954;BME280;58618;47.490;8.736;2023-06-14T01:32:06;95917.94;;;9.53;89.99
70954;BME280;58618;47.490;8.736;2023-06-14T01:34:54;95923.66;;;9.50;87.28
70954;BME280;58618;47.490;8.736;2023-06-14T01:37:42;95932.50;;;9.44;89.88
70954;BME280;58618;47.490;8.736;2023-06-14T01:40:32;95927.88;;;9.41;89.35
70954;BME280;58618;47.490;8.736;2023-06-14T01:43:22;95918.91;;;9.39;91.95
70954;BME280;58618;47.490;8.736;2023-06-14T01:46:11;95920.88;;;9.28;90.87
70954;BME280;58618;47.490;8.736;2023-06-14T01:48:59;95925.09;;;9.19;91.63
70954;BME280;58618;47.490;8.736;2023-06-14T01:51:46;95922.16;;;9.07;91.31
70954;BME280;58618;47.490;8.736;2023-06-14T01:54:34;95917.22;;;9.10;91.98
70954;BME280;58618;47.490;8.736;2023-06-14T01:57:27;95923.44;;;9.09;92.89
70954;BME280;58618;47.490;8.736;2023-06-14T02:00:16;95923.63;;;9.13;91.47
70954;BME280;58618;47.490;8.736;2023-06-14T02:03:04;95912.00;;;8.97;93.05
70954;BME280;58618;47.490;8.736;2023-06-14T02:05:51;95915.56;;;9.01;93.08
70954;BME280;58618;47.490;8.736;2023-06-14T02:08:38;95913.94;;;9.05;92.71
70954;BME280;58618;47.490;8.736;2023-06-14T02:11:26;95919.72;;;8.97;93.30
70954;BME280;58618;47.490;8.736;2023-06-14T02:14:15;95917.69;;;8.94;93.28
70954;BME280;58618;47.490;8.736;2023-06-14T02:17:03;95919.84;;;8.86;95.20
70954;BME280;58618;47.490;8.736;2023-06-14T02:19:50;95927.44;;;8.73;95.64
70954;BME280;58618;47.490;8.736;2023-06-14T02:22:38;95923.06;;;8.73;94.79
70954;BME280;58618;47.490;8.736;2023-06-14T02:25:25;95925.16;;;8.71;95.33
70954;BME280;58618;47.490;8.736;2023-06-14T02:28:13;95930.00;;;8.73;95.10
70954;BME280;58618;47.490;8.736;2023-06-14T02:31:02;95922.66;;;8.66;96.59
70954;BME280;58618;47.490;8.736;2023-06-14T02:33:49;95921.69;;;8.57;98.15
70954;BME280;58618;47.490;8.736;2023-06-14T02:36:36;95930.19;;;8.58;97.59
70954;BME280;58618;47.490;8.736;2023-06-14T02:39:27;95927.50;;;8.44;97.88
70954;BME280;58618;47.490;8.736;2023-06-14T02:42:14;95930.00;;;8.49;98.26
70954;BME280;58618;47.490;8.736;2023-06-14T02:45:02;95927.56;;;8.39;98.26
70954;BME280;58618;47.490;8.736;2023-06-14T02:47:51;95918.34;;;8.33;99.93
70954;BME280;58618;47.490;8.736;2023-06-14T02:50:38;95935.72;;;8.41;100.00
70954;BME280;58618;47.490;8.736;2023-06-14T02:53:26;95933.78;;;8.33;100.00
70954;BME280;58618;47.490;8.736;2023-06-14T02:56:13;95928.63;;;8.33;100.00
70954;BME280;58618;47.490;8.736;2023-06-14T02:59:03;95937.44;;;8.22;100.00
70954;BME280;58618;47.490;8.736;2023-06-14T03:01:50;95937.94;;;8.24;100.00
70954;BME280;58618;47.490;8.736;2023-06-14T03:04:39;95938.00;;;8.19;100.00
70954;BME280;58618;47.490;8.736;2023-06-14T03:07:29;95946.41;;;8.24;100.00
70954;BME280;58618;47.490;8.736;2023-06-14T03:10:16;95946.94;;;8.21;100.00
70954;BME280;58618;47.490;8.736;2023-06-14T03:13:03;95948.78;;;8.16;100.00
70954;BME280;58618;47.490;8.736;2023-06-14T03:15:51;95948.78;;;8.16;100.00
70954;BME280;58618;47.490;8.736;2023-06-14T03:18:38;95953.47;;;8.09;100.00
70954;BME280;58618;47.490;8.736;2023-06-14T03:21:26;95950.03;;;8.23;100.00
70954;BME280;58618;47.490;8.736;2023-06-14T03:24:14;95956.44;;;8.21;100.00
70954;BME280;58618;47.490;8.736;2023-06-14T03:27:02;95954.44;;;8.18;100.00
70954;BME280;58618;47.490;8.736;2023-06-14T03:29:50;95953.47;;;8.09;100.00
70954;BME280;58618;47.490;8.736;2023-06-14T03:32:37;95957.84;;;8.08;100.00
70954;BME280;58618;47.490;8.736;2023-06-14T03:35:24;95962.22;;;8.07;100.00
70954;BME280;58618;47.490;8.736;2023-06-14T03:38:13;95969.38;;;8.11;100.00
70954;BME280;58618;47.490;8.736;2023-06-14T03:41:01;95972.25;;;8.04;100.00
70954;BME280;58618;47.490;8.736;2023-06-14T03:43:48;95972.78;;;8.01;100.00
70954;BME280;58618;47.490;8.736;2023-06-14T03:46:35;95972.44;;;8.13;100.00
70954;BME280;58618;47.490;8.736;2023-06-14T03:49:23;95979.69;;;8.05;100.00
70954;BME280;58618;47.490;8.736;2023-06-14T03:52:10;95980.47;;;8.06;100.00
70954;BME280;58618;47.490;8.736;2023-06-14T03:55:00;95982.69;;;8.18;100.00
70954;BME280;58618;47.490;8.736;2023-06-14T03:57:47;95991.41;;;8.17;100.00
70954;BME280;58618;47.490;8.736;2023-06-14T04:00:34;95989.75;;;8.36;100.00
70954;BME280;58618;47.490;8.736;2023-06-14T04:03:21;95991.78;;;8.39;100.00
70954;BME280;58618;47.490;8.736;2023-06-14T04:06:11;95996.53;;;8.79;100.00
70954;BME280;58618;47.490;8.736;2023-06-14T04:08:59;96002.63;;;9.55;96.32
70954;BME280;58618;47.490;8.736;2023-06-14T04:11:51;96014.56;;;10.39;88.25
70954;BME280;58618;47.490;8.736;2023-06-14T04:14:39;96014.84;;;10.84;85.18
70954;BME280;58618;47.490;8.736;2023-06-14T04:17:26;96025.75;;;11.35;81.83
70954;BME280;58618;47.490;8.736;2023-06-14T04:20:13;96015.63;;;12.11;77.40
70954;BME280;58618;47.490;8.736;2023-06-14T04:23:11;96022.50;;;12.60;74.37
70954;BME280;58618;47.490;8.736;2023-06-14T04:25:58;96021.13;;;13.24;70.79
70954;BME280;58618;47.490;8.736;2023-06-14T04:28:49;96016.50;;;13.52;68.04
70954;BME280;58618;47.490;8.736;2023-06-14T04:31:37;96023.84;;;14.02;67.41
70954;BME280;58618;47.490;8.736;2023-06-14T04:34:24;96017.09;;;14.35;65.01
70954;BME280;58618;47.490;8.736;2023-06-14T04:37:15;96028.75;;;15.01;61.45
70954;BME280;58618;47.490;8.736;2023-06-14T04:40:04;96027.38;;;15.62;60.98
70954;BME280;58618;47.490;8.736;2023-06-14T04:42:52;96025.06;;;15.90;59.00
70954;BME280;58618;47.490;8.736;2023-06-14T04:45:42;96038.28;;;16.72;56.33
70954;BME280;58618;47.490;8.736;2023-06-14T04:48:32;96028.34;;;16.98;55.45
70954;BME280;58618;47.490;8.736;2023-06-14T04:51:19;96033.13;;;16.96;53.69
70954;BME280;58618;47.490;8.736;2023-06-14T04:54:08;96038.78;;;17.59;53.41
70954;BME280;58618;47.490;8.736;2023-06-14T04:56:56;96038.53;;;17.88;50.75
70954;BME280;58618;47.490;8.736;2023-06-14T04:59:43;96042.31;;;19.33;49.23
70954;BME280;58618;47.490;8.736;2023-06-14T05:02:32;96040.72;;;19.29;48.29
70954;BME280;58618;47.490;8.736;2023-06-14T05:05:19;96045.56;;;18.83;49.16
70954;BME280;58618;47.490;8.736;2023-06-14T05:08:07;96044.75;;;18.95;48.14
70954;BME280;58618;47.490;8.736;2023-06-14T05:10:54;96047.28;;;19.23;47.20
70954;BME280;58618;47.490;8.736;2023-06-14T05:13:41;96053.34;;;19.58;47.99
70954;BME280;58618;47.490;8.736;2023-06-14T05:16:29;96052.16;;;20.67;45.40
70954;BME280;58618;47.490;8.736;2023-06-14T05:19:18;96045.88;;;22.19;42.15
70954;BME280;58618;47.490;8.736;2023-06-14T05:22:07;96050.94;;;22.05;41.67
70954;BME280;58618;47.490;8.736;2023-06-14T05:25:05;96052.09;;;23.15;38.25
70954;BME280;58618;47.490;8.736;2023-06-14T05:27:52;96048.72;;;23.69;37.62
70954;BME280;58618;47.490;8.736;2023-06-14T05:30:40;96055.16;;;23.72;35.84
70954;BME280;58618;47.490;8.736;2023-06-14T05:33:27;96058.97;;;22.53;39.03
70954;BME280;58618;47.490;8.736;2023-06-14T05:36:16;96058.56;;;24.69;34.19
70954;BME280;58618;47.490;8.736;2023-06-14T05:39:04;96054.13;;;25.65;33.40
70954;BME280;58618;47.490;8.736;2023-06-14T05:41:51;96059.78;;;23.38;36.45
70954;BME280;58618;47.490;8.736;2023-06-14T05:44:39;96059.66;;;26.17;31.68
70954;BME280;58618;47.490;8.736;2023-06-14T05:47:26;96058.97;;;25.92;32.35
70954;BME280;58618;47.490;8.736;2023-06-14T05:50:14;96069.84;;;27.91;28.57
70954;BME280;58618;47.490;8.736;2023-06-14T05:53:03;96067.22;;;28.82;26.72
70954;BME280;58618;47.490;8.736;2023-06-14T05:55:50;96067.59;;;28.54;27.01
70954;BME280;58618;47.490;8.736;2023-06-14T05:58:40;96068.59;;;26.44;30.71
70954;BME280;58618;47.490;8.736;2023-06-14T06:01:28;96078.47;;;29.44;26.23
70954;BME280;58618;47.490;8.736;2023-06-14T06:04:16;96082.16;;;29.50;25.62
70954;BME280;58618;47.490;8.736;2023-06-14T06:07:04;96075.44;;;27.11;29.11
70954;BME280;58618;47.490;8.736;2023-06-14T06:09:53;96072.78;;;29.18;26.26
70954;BME280;58618;47.490;8.736;2023-06-14T06:12:41;96072.91;;;28.54;26.18
70954;BME280;58618;47.490;8.736;2023-06-14T06:15:28;96081.41;;;29.49;25.84
70954;BME280;58618;47.490;8.736;2023-06-14T06:18:15;96085.00;;;27.87;27.74
70954;BME280;58618;47.490;8.736;2023-06-14T06:21:03;96083.72;;;31.05;23.42
70954;BME280;58618;47.490;8.736;2023-06-14T06:23:51;96086.28;;;29.27;25.20
70954;BME280;58618;47.490;8.736;2023-06-14T06:26:39;96091.88;;;30.42;23.67
70954;BME280;58618;47.490;8.736;2023-06-14T06:29:32;96092.75;;;30.36;23.13
70954;BME280;58618;47.490;8.736;2023-06-14T06:32:20;96087.16;;;30.30;23.11
70954;BME280;58618;47.490;8.736;2023-06-14T06:35:07;96093.31;;;30.27;23.79
70954;BME280;58618;47.490;8.736;2023-06-14T06:37:56;96087.31;;;28.53;25.18
70954;BME280;58618;47.490;8.736;2023-06-14T06:40:44;96088.53;;;27.33;26.65
70954;BME280;58618;47.490;8.736;2023-06-14T06:43:32;96103.81;;;30.14;23.74
70954;BME280;58618;47.490;8.736;2023-06-14T06:46:20;96099.75;;;29.40;24.18
70954;BME280;58618;47.490;8.736;2023-06-14T06:49:07;96095.75;;;27.73;27.26
70954;BME280;58618;47.490;8.736;2023-06-14T06:52:01;96095.63;;;29.12;24.87
70954;BME280;58618;47.490;8.736;2023-06-14T06:54:49;96100.19;;;30.25;24.58
70954;BME280;58618;47.490;8.736;2023-06-14T06:57:40;96097.75;;;28.98;25.23
70954;BME280;58618;47.490;8.736;2023-06-14T07:00:29;96106.75;;;28.12;27.41
70954;BME280;58618;47.490;8.736;2023-06-14T07:03:16;96112.72;;;29.38;24.78
70954;BME280;58618;47.490;8.736;2023-06-14T07:06:04;96099.84;;;28.22;26.16
70954;BME280;58618;47.490;8.736;2023-06-14T07:08:51;96101.50;;;28.73;25.89
70954;BME280;58618;47.490;8.736;2023-06-14T07:11:39;96103.28;;;29.57;24.36
70954;BME280;58618;47.490;8.736;2023-06-14T07:14:26;96103.00;;;29.28;27.13
70954;BME280;58618;47.490;8.736;2023-06-14T07:17:16;96098.09;;;27.67;27.93
70954;BME280;58618;47.490;8.736;2023-06-14T07:20:04;96098.59;;;27.00;29.55
70954;BME280;58618;47.490;8.736;2023-06-14T07:22:59;96103.41;;;26.39;30.65
70954;BME280;58618;47.490;8.736;2023-06-14T07:25:46;96101.72;;;26.77;29.30
70954;BME280;58618;47.490;8.736;2023-06-14T07:28:34;96103.03;;;26.37;29.40
70954;BME280;58618;47.490;8.736;2023-06-14T07:31:22;96101.97;;;26.03;29.70
70954;BME280;58618;47.490;8.736;2023-06-14T07:34:10;96109.00;;;27.25;29.19
70954;BME280;58618;47.490;8.736;2023-06-14T07:36:58;96108.31;;;27.17;26.66
70954;BME280;58618;47.490;8.736;2023-06-14T07:39:45;96113.53;;;28.81;24.87
70954;BME280;58618;47.490;8.736;2023-06-14T07:42:33;96111.41;;;26.11;29.32
70954;BME280;58618;47.490;8.736;2023-06-14T07:45:21;96110.34;;;25.41;29.89
70954;BME280;58618;47.490;8.736;2023-06-14T07:48:09;96110.25;;;26.23;28.50
70954;BME280;58618;47.490;8.736;2023-06-14T07:50:57;96111.41;;;26.25;28.30
70954;BME280;58618;47.490;8.736;2023-06-14T07:53:45;96118.28;;;27.95;25.74
70954;BME280;58618;47.490;8.736;2023-06-14T07:56:32;96110.38;;;28.26;25.93
70954;BME280;58618;47.490;8.736;2023-06-14T07:59:19;96109.94;;;27.93;27.59
70954;BME280;58618;47.490;8.736;2023-06-14T08:02:07;96110.03;;;27.86;25.30
70954;BME280;58618;47.490;8.736;2023-06-14T08:04:54;96108.19;;;27.80;25.50
70954;BME280;58618;47.490;8.736;2023-06-14T08:07:43;96109.81;;;29.29;23.88
70954;BME280;58618;47.490;8.736;2023-06-14T08:10:30;96103.22;;;26.78;26.88
70954;BME280;58618;47.490;8.736;2023-06-14T08:13:18;96109.06;;;27.66;25.28
70954;BME280;58618;47.490;8.736;2023-06-14T08:16:05;96107.47;;;28.17;25.65
70954;BME280;58618;47.490;8.736;2023-06-14T08:18:52;96107.13;;;28.45;25.63
70954;BME280;58618;47.490;8.736;2023-06-14T08:21:40;96110.53;;;27.22;25.51
70954;BME280;58618;47.490;8.736;2023-06-14T08:24:28;96107.88;;;26.57;25.86
70954;BME280;58618;47.490;8.736;2023-06-14T08:27:15;96109.88;;;27.11;26.36
70954;BME280;58618;47.490;8.736;2023-06-14T08:30:04;96106.56;;;26.93;25.44
70954;BME280;58618;47.490;8.736;2023-06-14T08:32:51;96109.44;;;27.16;25.56
70954;BME280;58618;47.490;8.736;2023-06-14T08:35:41;96116.69;;;26.22;25.88
70954;BME280;58618;47.490;8.736;2023-06-14T08:38:28;96110.47;;;27.29;25.16
70954;BME280;58618;47.490;8.736;2023-06-14T08:41:21;96117.09;;;26.06;26.28
70954;BME280;58618;47.490;8.736;2023-06-14T08:44:09;96127.72;;;25.56;27.22
70954;BME280;58618;47.490;8.736;2023-06-14T08:46:56;96112.53;;;26.14;25.76
70954;BME280;58618;47.490;8.736;2023-06-14T08:49:46;96114.38;;;24.78;27.20
70954;BME280;58618;47.490;8.736;2023-06-14T08:52:38;96123.13;;;25.00;27.49
70954;BME280;58618;47.490;8.736;2023-06-14T08:55:27;96116.84;;;24.32;28.46
70954;BME280;58618;47.490;8.736;2023-06-14T08:58:16;96116.38;;;25.24;27.59
70954;BME280;58618;47.490;8.736;2023-06-14T09:01:04;96117.41;;;26.19;25.90
70954;BME280;58618;47.490;8.736;2023-06-14T09:03:53;96125.00;;;25.03;26.47
70954;BME280;58618;47.490;8.736;2023-06-14T09:06:43;96114.88;;;25.83;28.16
70954;BME280;58618;47.490;8.736;2023-06-14T09:09:30;96114.66;;;26.65;25.09
70954;BME280;58618;47.490;8.736;2023-06-14T09:12:17;96119.28;;;24.76;27.06
70954;BME280;58618;47.490;8.736;2023-06-14T09:15:07;96114.88;;;25.48;26.84
70954;BME280;58618;47.490;8.736;2023-06-14T09:17:55;96121.28;;;25.22;25.66
70954;BME280;58618;47.490;8.736;2023-06-14T09:20:43;96112.63;;;25.75;26.02
70954;BME280;58618;47.490;8.736;2023-06-14T09:23:33;96105.75;;;24.96;26.33
70954;BME280;58618;47.490;8.736;2023-06-14T09:26:23;96116.38;;;25.31;26.88
70954;BME280;58618;47.490;8.736;2023-06-14T09:29:10;96111.72;;;24.71;27.06
70954;BME280;58618;47.490;8.736;2023-06-14T09:33:23;96123.13;;;24.90;27.04
70954;BME280;58618;47.490;8.736;2023-06-14T09:36:12;96105.44;;;25.50;26.66
70954;BME280;58618;47.490;8.736;2023-06-14T09:39:03;96105.69;;;24.67;28.03
70954;BME280;58618;47.490;8.736;2023-06-14T09:41:52;96113.75;;;25.31;27.69
70954;BME280;58618;47.490;8.736;2023-06-14T09:44:39;96122.97;;;24.54;28.02
70954;BME280;58618;47.490;8.736;2023-06-14T09:47:27;96111.84;;;25.78;25.72
70954;BME280;58618;47.490;8.736;2023-06-14T09:50:15;96115.41;;;24.46;27.78
70954;BME280;58618;47.490;8.736;2023-06-14T09:53:06;96117.00;;;24.68;26.71
70954;BME280;58618;47.490;8.736;2023-06-14T09:55:54;96111.84;;;25.14;26.90
70954;BME280;58618;47.490;8.736;2023-06-14T09:58:44;96106.91;;;24.05;27.95
70954;BME280;58618;47.490;8.736;2023-06-14T10:01:32;96114.91;;;24.19;28.24
70954;BME280;58618;47.490;8.736;2023-06-14T10:04:21;96106.25;;;24.22;28.54
70954;BME280;58618;47.490;8.736;2023-06-14T10:07:11;96109.06;;;23.88;27.86
70954;BME280;58618;47.490;8.736;2023-06-14T10:09:59;96111.72;;;23.95;28.81
70954;BME280;58618;47.490;8.736;2023-06-14T10:12:46;96099.41;;;24.14;27.97
70954;BME280;58618;47.490;8.736;2023-06-14T10:15:38;96120.31;;;24.54;27.44
70954;BME280;58618;47.490;8.736;2023-06-14T10:18:33;96116.28;;;23.98;27.60
70954;BME280;58618;47.490;8.736;2023-06-14T10:21:28;96120.44;;;23.99;28.00
70954;BME280;58618;47.490;8.736;2023-06-14T10:24:26;96094.31;;;24.42;28.21
70954;BME280;58618;47.490;8.736;2023-06-14T10:27:15;96100.38;;;24.53;27.32
70954;BME280;58618;47.490;8.736;2023-06-14T10:30:05;96094.78;;;23.89;28.22
70954;BME280;58618;47.490;8.736;2023-06-14T10:33:07;96091.28;;;24.40;27.88
70954;BME280;58618;47.490;8.736;2023-06-14T10:36:07;96103.44;;;24.76;27.43
70954;BME280;58618;47.490;8.736;2023-06-14T10:38:58;96102.84;;;24.18;27.91
70954;BME280;58618;47.490;8.736;2023-06-14T10:41:54;96084.19;;;23.82;27.96
70954;BME280;58618;47.490;8.736;2023-06-14T10:44:45;96097.38;;;24.58;27.82
70954;BME280;58618;47.490;8.736;2023-06-14T10:47:33;96108.63;;;24.45;27.71
70954;BME280;58618;47.490;8.736;2023-06-14T10:50:27;96080.44;;;23.83;28.27
70954;BME280;58618;47.490;8.736;2023-06-14T10:53:21;96095.78;;;23.74;28.78
70954;BME280;58618;47.490;8.736;2023-06-14T10:56:23;96091.09;;;24.05;28.27
70954;BME280;58618;47.490;8.736;2023-06-14T10:59:13;96084.28;;;24.00;29.01
70954;BME280;58618;47.490;8.736;2023-06-14T11:02:20;96098.56;;;23.95;28.22
70954;BME280;58618;47.490;8.736;2023-06-14T11:05:15;96087.34;;;24.06;28.49
70954;BME280;58618;47.490;8.736;2023-06-14T11:08:18;96082.97;;;23.69;29.07
70954;BME280;58618;47.490;8.736;2023-06-14T11:11:11;96084.13;;;23.75;29.83
70954;BME280;58618;47.490;8.736;2023-06-14T11:14:00;96085.78;;;23.97;28.41
70954;BME280;58618;47.490;8.736;2023-06-14T11:16:49;96089.63;;;24.14;27.59
70954;BME280;58618;47.490;8.736;2023-06-14T11:19:37;96085.78;;;23.97;28.26
70954;BME280;58618;47.490;8.736;2023-06-14T11:22:24;96091.03;;;23.97;28.13
70954;BME280;58618;47.490;8.736;2023-06-14T11:25:12;96088.75;;;23.89;27.86
70954;BME280;58618;47.490;8.736;2023-06-14T11:28:00;96083.16;;;24.01;29.23
70954;BME280;58618;47.490;8.736;2023-06-14T11:30:47;96072.00;;;23.60;29.06
70954;BME280;58618;47.490;8.736;2023-06-14T11:33:36;96063.16;;;23.93;29.86
70954;BME280;58618;47.490;8.736;2023-06-14T11:36:26;96074.56;;;24.15;29.79
70954;BME280;58618;47.490;8.736;2023-06-14T11:39:15;96080.56;;;24.05;28.47
70954;BME280;58618;47.490;8.736;2023-06-14T11:42:03;96088.88;;;24.14;28.32
70954;BME280;58618;47.490;8.736;2023-06-14T11:44:51;96073.75;;;24.00;29.24
70954;BME280;58618;47.490;8.736;2023-06-14T11:47:39;96069.97;;;23.97;28.43
70954;BME280;58618;47.490;8.736;2023-06-14T11:50:28;96072.38;;;24.24;28.42
70954;BME280;58618;47.490;8.736;2023-06-14T11:53:15;96070.00;;;24.05;28.60
70954;BME280;58618;47.490;8.736;2023-06-14T11:56:03;96069.41;;;24.36;28.95
70954;BME280;58618;47.490;8.736;2023-06-14T11:58:52;96061.06;;;24.20;28.24
70954;BME280;58618;47.490;8.736;2023-06-14T12:01:43;96052.78;;;24.21;27.87
70954;BME280;58618;47.490;8.736;2023-06-14T12:04:31;96053.50;;;24.15;27.86
70954;BME280;58618;47.490;8.736;2023-06-14T12:07:21;96072.41;;;24.38;28.45
70954;BME280;58618;47.490;8.736;2023-06-14T12:10:09;96058.03;;;24.18;27.75
70954;BME280;58618;47.490;8.736;2023-06-14T12:12:57;96065.94;;;24.18;28.41
70954;BME280;58618;47.490;8.736;2023-06-14T12:15:54;96059.47;;;24.12;28.73
70954;BME280;58618;47.490;8.736;2023-06-14T12:18:41;96059.47;;;24.12;28.38
70954;BME280;58618;47.490;8.736;2023-06-14T12:21:29;96049.78;;;24.23;28.46
70954;BME280;58618;47.490;8.736;2023-06-14T12:24:18;96056.56;;;24.27;28.33
70954;BME280;58618;47.490;8.736;2023-06-14T12:27:06;96074.53;;;24.08;27.89
70954;BME280;58618;47.490;8.736;2023-06-14T12:29:59;96060.19;;;23.94;28.77
70954;BME280;58618;47.490;8.736;2023-06-14T12:32:46;96057.84;;;23.82;28.49
70954;BME280;58618;47.490;8.736;2023-06-14T12:35:34;96055.72;;;24.06;28.18
70954;BME280;58618;47.490;8.736;2023-06-14T12:38:21;96067.78;;;24.14;28.04
70954;BME280;58618;47.490;8.736;2023-06-14T12:41:10;96058.00;;;24.14;28.00
70954;BME280;58618;47.490;8.736;2023-06-14T12:43:57;96049.03;;;24.26;27.14
70954;BME280;58618;47.490;8.736;2023-06-14T12:46:45;96060.28;;;24.16;29.27
70954;BME280;58618;47.490;8.736;2023-06-14T12:49:33;96059.59;;;24.33;28.47
70954;BME280;58618;47.490;8.736;2023-06-14T12:52:20;96058.47;;;24.34;28.55
70954;BME280;58618;47.490;8.736;2023-06-14T12:55:07;96056.66;;;24.52;29.49
70954;BME280;58618;47.490;8.736;2023-06-14T12:57:56;96067.91;;;24.38;27.75
70954;BME280;58618;47.490;8.736;2023-06-14T13:00:43;96066.47;;;24.69;27.85
70954;BME280;58618;47.490;8.736;2023-06-14T13:03:31;96076.97;;;24.41;28.20
70954;BME280;58618;47.490;8.736;2023-06-14T13:06:20;96069.78;;;24.31;28.34
70954;BME280;58618;47.490;8.736;2023-06-14T13:09:08;96073.22;;;24.49;27.97
70954;BME280;58618;47.490;8.736;2023-06-14T13:11:55;96061.91;;;24.45;29.30
70954;BME280;58618;47.490;8.736;2023-06-14T13:14:43;96067.19;;;24.45;28.09
70954;BME280;58618;47.490;8.736;2023-06-14T13:17:31;96076.97;;;24.41;27.74
70954;BME280;58618;47.490;8.736;2023-06-14T13:20:19;96064.16;;;24.43;27.88
70954;BME280;58618;47.490;8.736;2023-06-14T13:23:07;96052.91;;;24.53;28.55
70954;BME280;58618;47.490;8.736;2023-06-14T13:25:54;96074.41;;;24.73;28.09
70954;BME280;58618;47.490;8.736;2023-06-14T13:28:42;96071.00;;;24.65;28.74
70954;BME280;58618;47.490;8.736;2023-06-14T13:31:30;96065.72;;;24.65;28.81
70954;BME280;58618;47.490;8.736;2023-06-14T13:34:18;96068.06;;;24.99;27.45
70954;BME280;58618;47.490;8.736;2023-06-14T13:37:05;96056.28;;;24.64;27.45
70954;BME280;58618;47.490;8.736;2023-06-14T13:39:53;96065.00;;;24.68;28.11
70954;BME280;58618;47.490;8.736;2023-06-14T13:42:40;96060.81;;;24.53;28.13
70954;BME280;58618;47.490;8.736;2023-06-14T13:45:27;96063.47;;;24.67;27.31
70954;BME280;58618;47.490;8.736;2023-06-14T13:48:16;96046.88;;;24.56;28.14
70954;BME280;58618;47.490;8.736;2023-06-14T13:51:04;96046.09;;;24.59;28.61
70954;BME280;58618;47.490;8.736;2023-06-14T13:53:52;96049.16;;;24.68;28.63
70954;BME280;58618;47.490;8.736;2023-06-14T13:56:41;96059.28;;;24.52;28.18
70954;BME280;58618;47.490;8.736;2023-06-14T13:59:28;96062.69;;;24.56;27.97
70954;BME280;58618;47.490;8.736;2023-06-14T14:02:17;96052.16;;;24.67;27.84
70954;BME280;58618;47.490;8.736;2023-06-14T14:05:06;96055.16;;;24.65;27.10
70954;BME280;58618;47.490;8.736;2023-06-14T14:07:53;96049.13;;;24.65;27.58
70954;BME280;58618;47.490;8.736;2023-06-14T14:10:41;96054.44;;;24.82;27.18
70954;BME280;58618;47.490;8.736;2023-06-14T14:13:28;96048.75;;;24.52;27.99
70954;BME280;58618;47.490;8.736;2023-06-14T14:16:15;96045.34;;;24.55;28.41
70954;BME280;58618;47.490;8.736;2023-06-14T14:19:03;96047.97;;;24.45;27.33
70954;BME280;58618;47.490;8.736;2023-06-14T14:21:53;96043.88;;;24.61;28.20
70954;BME280;58618;47.490;8.736;2023-06-14T14:24:40;96040.47;;;24.57;28.05
70954;BME280;58618;47.490;8.736;2023-06-14T14:27:27;96050.66;;;24.62;28.23
70954;BME280;58618;47.490;8.736;2023-06-14T14:30:15;96048.06;;;24.91;28.15
70954;BME280;58618;47.490;8.736;2023-06-14T14:33:03;96042.41;;;24.96;28.15
70954;BME280;58618;47.490;8.736;2023-06-14T14:35:50;96048.47;;;25.03;27.51
70954;BME280;58618;47.490;8.736;2023-06-14T14:38:39;96043.19;;;24.93;28.15
70954;BME280;58618;47.490;8.736;2023-06-14T14:41:27;96042.41;;;24.74;27.92
70954;BME280;58618;47.490;8.736;2023-06-14T14:44:15;96037.84;;;24.71;28.23
70954;BME280;58618;47.490;8.736;2023-06-14T14:47:02;96044.72;;;24.90;28.89
70954;BME280;58618;47.490;8.736;2023-06-14T14:49:49;96053.75;;;24.93;28.16
70954;BME280;58618;47.490;8.736;2023-06-14T14:52:37;96045.44;;;24.98;28.64
70954;BME280;58618;47.490;8.736;2023-06-14T14:55:25;96041.25;;;24.68;28.12
70954;BME280;58618;47.490;8.736;2023-06-14T14:58:13;96042.38;;;24.71;27.83